createdAt,value
2023-03-10T00:01:41.181Z,2.60
2023-03-10T00:06:44.303Z,3.30
2023-03-10T00:11:47.194Z,6.60
2023-03-10T00:16:50.099Z,6.90
2023-03-10T00:21:53.584Z,4.70
2023-03-10T00:26:56.518Z,6.30
2023-03-10T00:31:59.936Z,8.00
2023-03-10T00:37:04.584Z,3.20
2023-03-10T00:42:08.109Z,6.20
2023-03-10T00:47:11.474Z,3.00
2023-03-10T00:52:14.425Z,2.60
2023-03-10T00:57:18.337Z,5.50
2023-03-10T01:02:21.464Z,6.30
2023-03-10T01:07:24.371Z,5.60
2023-03-10T01:12:27.269Z,4.40
2023-03-10T01:17:30.174Z,3.10
2023-03-10T01:22:33.079Z,6.60
2023-03-10T01:27:35.987Z,5.80
2023-03-10T01:32:39.698Z,4.10
2023-03-10T01:37:44.485Z,7.60
2023-03-10T01:42:47.664Z,4.90
2023-03-10T01:47:50.568Z,5.40
2023-03-10T01:52:58.531Z,10.40
2023-03-10T01:58:03.131Z,2.10
2023-03-10T02:03:27.126Z,5.50
2023-03-10T02:08:34.229Z,8.20
2023-03-10T02:13:37.139Z,5.80
2023-03-10T02:18:43.730Z,5.50
2023-03-10T02:24:01.385Z,8.00
2023-03-10T02:29:09.814Z,5.10
2023-03-10T02:34:13.984Z,3.60
2023-03-10T02:39:16.956Z,4.10
2023-03-10T02:44:22.210Z,6.10
2023-03-10T02:49:25.934Z,4.30
2023-03-10T02:54:28.838Z,3.40
2023-03-10T02:59:31.741Z,6.70
2023-03-10T03:04:34.645Z,4.40
2023-03-10T03:09:37.492Z,5.10
2023-03-10T03:14:40.328Z,7.30
2023-03-10T03:19:43.254Z,6.50
2023-03-10T03:24:46.154Z,7.00
2023-03-10T03:29:49.060Z,5.20
2023-03-10T03:34:51.961Z,9.20
2023-03-10T03:39:55.601Z,6.90
2023-03-10T03:44:58.691Z,4.30
2023-03-10T03:50:02.287Z,5.40
2023-03-10T03:55:06.562Z,6.60
2023-03-10T04:00:13.140Z,6.60
2023-03-10T04:05:16.451Z,4.60
2023-03-10T04:10:23.872Z,3.50
2023-03-10T04:15:27.212Z,7.70
2023-03-10T04:20:30.188Z,10.10
2023-03-10T04:25:33.291Z,5.70
2023-03-10T04:30:36.199Z,5.70
2023-03-10T04:35:44.245Z,9.30
2023-03-10T04:40:54.172Z,4.90
2023-03-10T04:51:09.289Z,5.70
2023-03-10T04:56:12.436Z,7.20
2023-03-10T05:01:16.194Z,4.00
2023-03-10T05:06:21.602Z,13.20
2023-03-10T05:11:24.521Z,8.00
2023-03-10T05:16:28.027Z,6.70
2023-03-10T05:21:31.142Z,5.40
2023-03-10T05:26:34.956Z,10.80
2023-03-10T05:31:38.252Z,9.30
2023-03-10T05:36:42.082Z,11.60
2023-03-10T05:41:44.904Z,6.30
2023-03-10T05:46:47.795Z,5.90
2023-03-10T05:51:51.238Z,4.30
2023-03-10T05:56:54.244Z,6.00
2023-03-10T06:01:57.245Z,4.30
2023-03-10T06:07:01.239Z,8.10
2023-03-10T06:12:04.831Z,6.00
2023-03-10T06:17:07.695Z,9.50
2023-03-10T06:22:10.597Z,4.90
2023-03-10T06:27:13.502Z,5.50
2023-03-10T06:32:16.856Z,7.30
2023-03-10T06:37:19.828Z,6.00
2023-03-10T06:42:22.730Z,4.50
2023-03-10T06:47:25.681Z,7.60
2023-03-10T06:52:28.644Z,4.20
2023-03-10T06:57:31.555Z,6.70
2023-03-10T07:02:34.453Z,4.90
2023-03-10T07:07:37.459Z,6.90
2023-03-10T07:12:40.356Z,5.70
2023-03-10T07:17:43.260Z,4.70
2023-03-10T07:22:46.164Z,5.50
2023-03-10T07:27:49.783Z,4.90
2023-03-10T07:32:54.503Z,4.60
2023-03-10T07:37:57.462Z,5.50
2023-03-10T07:43:00.444Z,4.30
2023-03-10T07:48:03.410Z,6.90
2023-03-10T07:53:06.455Z,7.60
2023-03-10T07:58:09.367Z,8.80
2023-03-10T08:03:12.572Z,7.70
2023-03-10T08:08:15.686Z,6.20
2023-03-10T08:13:18.717Z,6.40
2023-03-10T08:18:23.548Z,6.30
2023-03-10T08:23:26.445Z,5.40
2023-03-10T08:28:30.781Z,5.70
2023-03-10T08:33:34.093Z,4.90
2023-03-10T08:38:37.610Z,13.60
2023-03-10T08:43:40.831Z,7.90
2023-03-10T08:48:43.942Z,9.50
2023-03-10T08:53:49.305Z,11.30
2023-03-10T08:58:57.430Z,5.80
2023-03-10T09:04:01.654Z,6.60
2023-03-10T09:09:06.510Z,8.10
2023-03-10T09:14:12.075Z,7.30
2023-03-10T09:19:15.076Z,4.20
2023-03-10T09:24:19.523Z,4.80
2023-03-10T09:29:40.312Z,5.30
2023-03-10T09:34:45.801Z,3.50
2023-03-10T09:39:48.711Z,4.50
2023-03-10T09:45:10.970Z,3.60
2023-03-10T09:50:34.056Z,5.70
2023-03-10T09:55:47.469Z,4.90
2023-03-10T10:00:51.645Z,4.00
2023-03-10T10:05:56.077Z,5.80
2023-03-10T10:11:00.556Z,4.40
2023-03-10T10:16:34.711Z,9.70
2023-03-10T10:22:12.059Z,4.40
2023-03-10T10:27:18.728Z,9.00
2023-03-10T10:32:23.168Z,7.10
2023-03-10T10:37:34.008Z,11.80
2023-03-10T10:42:38.728Z,8.90
2023-03-10T10:47:50.539Z,6.90
2023-03-10T10:53:16.792Z,5.40
2023-03-10T10:58:28.600Z,4.30
2023-03-10T11:03:37.646Z,3.70
2023-03-10T11:08:43.120Z,7.50
2023-03-10T11:14:26.575Z,3.30
2023-03-10T11:19:35.417Z,5.70
2023-03-10T11:24:43.244Z,5.10
2023-03-10T11:29:59.404Z,5.00
2023-03-10T11:35:15.773Z,4.50
2023-03-10T11:40:49.919Z,5.30
2023-03-10T11:45:55.467Z,9.30
2023-03-10T11:51:04.363Z,6.60
2023-03-10T11:56:11.224Z,6.80
2023-03-10T12:01:42.495Z,5.50
2023-03-10T12:06:53.690Z,4.30
2023-03-10T12:11:57.634Z,5.70
2023-03-10T12:17:02.876Z,5.30
2023-03-10T12:22:21.441Z,9.60
2023-03-10T12:27:24.552Z,4.10
2023-03-10T12:32:47.847Z,7.10
2023-03-10T12:38:29.546Z,5.70
2023-03-10T12:43:38.916Z,5.30
2023-03-10T12:48:50.455Z,6.00
2023-03-10T12:54:16.566Z,6.10
2023-03-10T12:59:37.086Z,5.40
2023-03-10T13:04:42.557Z,6.10
2023-03-10T13:09:49.095Z,5.90
2023-03-10T13:14:56.340Z,4.50
2023-03-10T13:20:05.813Z,5.90
2023-03-10T13:25:14.491Z,5.30
2023-03-10T13:30:21.536Z,5.70
2023-03-10T13:35:31.689Z,6.00
2023-03-10T13:40:35.271Z,7.00
2023-03-10T13:45:38.284Z,4.50
2023-03-10T13:50:41.242Z,7.30
2023-03-10T13:55:44.354Z,4.50
2023-03-10T14:00:50.720Z,6.00
2023-03-10T14:05:54.257Z,5.20
2023-03-10T14:11:32.589Z,6.60
2023-03-10T14:16:59.431Z,6.20
2023-03-10T14:22:02.557Z,10.50
2023-03-10T14:27:10.378Z,13.50
2023-03-10T14:32:13.868Z,17.10
2023-03-10T14:37:17.624Z,13.40
2023-03-10T14:42:29.125Z,14.90
2023-03-10T14:47:32.322Z,15.80
2023-03-10T14:52:35.454Z,12.30
2023-03-10T14:57:40.295Z,14.80
2023-03-10T15:02:43.196Z,12.10
2023-03-10T15:07:47.545Z,17.30
2023-03-10T15:12:53.563Z,13.70
2023-03-10T15:17:56.526Z,13.80
2023-03-10T15:22:59.437Z,16.10
2023-03-10T15:28:02.819Z,15.80
2023-03-10T15:33:05.749Z,18.30
2023-03-10T15:38:10.394Z,15.50
2023-03-10T15:43:14.099Z,12.40
2023-03-10T15:48:17.948Z,13.30
2023-03-10T15:53:20.846Z,9.70
2023-03-10T15:58:24.606Z,22.20
2023-03-10T16:03:27.586Z,24.40
2023-03-10T16:08:37.199Z,19.70
2023-03-10T16:13:40.401Z,17.40
2023-03-10T16:18:43.350Z,11.60
2023-03-10T16:23:46.680Z,27.40
2023-03-10T16:28:54.397Z,38.20
2023-03-10T16:33:57.388Z,19.60
2023-03-10T16:39:00.439Z,34.10
2023-03-10T16:44:05.660Z,17.40
2023-03-10T16:49:14.899Z,22.70
2023-03-10T16:54:22.316Z,18.90
2023-03-10T16:59:25.417Z,26.70
2023-03-10T17:04:28.428Z,20.00
2023-03-10T17:09:31.333Z,24.00
2023-03-10T17:14:34.262Z,33.30
2023-03-10T17:19:37.145Z,23.30
2023-03-10T17:24:40.054Z,20.10
2023-03-10T17:29:42.948Z,22.70
2023-03-10T17:34:52.105Z,16.20
2023-03-10T17:39:55.704Z,19.70
2023-03-10T17:44:58.733Z,12.00
2023-03-10T17:50:02.560Z,20.60
2023-03-10T17:55:06.560Z,30.40
2023-03-10T18:00:11.058Z,34.30
2023-03-10T18:05:14.341Z,25.30
2023-03-10T18:10:17.493Z,20.20
2023-03-10T18:15:20.575Z,16.80
2023-03-10T18:20:24.282Z,24.60
2023-03-10T18:25:27.637Z,29.90
2023-03-10T18:30:30.509Z,26.00
2023-03-10T18:35:34.016Z,21.80
2023-03-10T18:40:36.923Z,30.00
2023-03-10T18:45:40.953Z,23.30
2023-03-10T18:50:43.853Z,12.40
2023-03-10T18:55:47.067Z,13.60
2023-03-10T19:00:50.498Z,14.90
2023-03-10T19:05:54.785Z,24.50
2023-03-10T19:10:59.257Z,26.10
2023-03-10T19:16:09.772Z,26.20
2023-03-10T19:21:13.257Z,26.30
2023-03-10T19:26:16.472Z,22.60
2023-03-10T19:31:19.821Z,22.20
2023-03-10T19:36:26.714Z,22.40
2023-03-10T19:41:29.558Z,36.50
2023-03-10T19:46:32.933Z,40.60
2023-03-10T19:51:36.005Z,37.70
2023-03-10T19:56:39.510Z,56.90
2023-03-10T20:01:44.179Z,26.40
2023-03-10T20:06:47.287Z,33.20
2023-03-10T20:11:50.182Z,30.30
2023-03-10T20:16:53.377Z,30.00
2023-03-10T20:21:56.297Z,37.60
2023-03-10T20:27:00.326Z,38.20
2023-03-10T20:32:04.515Z,36.70
2023-03-10T20:37:07.777Z,31.20
2023-03-10T20:42:10.682Z,24.10
2023-03-10T20:47:13.583Z,27.50
2023-03-10T20:52:16.588Z,37.80
2023-03-10T20:57:19.489Z,46.90
2023-03-10T21:02:22.495Z,35.30
2023-03-10T21:07:25.398Z,28.50
2023-03-10T21:12:28.919Z,38.10
2023-03-10T21:17:32.023Z,25.50
2023-03-10T21:22:36.107Z,30.70
2023-03-10T21:27:38.969Z,30.60
2023-03-10T21:32:42.353Z,27.60
2023-03-10T21:37:49.592Z,23.60
2023-03-10T21:42:52.977Z,17.20
2023-03-10T21:47:56.330Z,34.30
2023-03-10T21:53:00.296Z,20.70
2023-03-10T21:58:05.748Z,20.50
2023-03-10T22:03:08.718Z,14.80
2023-03-10T22:08:11.541Z,28.70
2023-03-10T22:13:14.733Z,18.60
2023-03-10T22:18:17.638Z,15.30
2023-03-10T22:23:21.050Z,21.50
2023-03-10T22:28:23.951Z,17.00
2023-03-10T22:33:26.957Z,11.60
2023-03-10T22:38:29.964Z,14.10
2023-03-10T22:43:32.969Z,20.50
2023-03-10T22:48:35.802Z,15.30
2023-03-10T22:53:38.893Z,21.80
2023-03-10T22:58:41.985Z,26.10
2023-03-10T23:03:44.894Z,29.30
2023-03-10T23:08:48.715Z,18.60
2023-03-10T23:13:52.038Z,23.80
2023-03-10T23:18:55.045Z,27.20
2023-03-10T23:23:58.046Z,34.80
2023-03-10T23:29:02.919Z,34.10
2023-03-10T23:34:05.899Z,16.10
2023-03-10T23:39:11.571Z,26.50
2023-03-10T23:44:14.485Z,21.70
2023-03-10T23:49:17.581Z,22.10
2023-03-10T23:54:22.538Z,18.90
2023-03-10T23:59:25.652Z,29.40
